sensor_id;sensor_type;location;lat;lon;timestamp;temperature;humidity
50969;DHT22;36982;51.474;7.228;2023-12-29T00:00:19;10.50;57.00
50969;DHT22;36982;51.474;7.228;2023-12-29T00:02:44;10.60;53.30
50969;DHT22;36982;51.474;7.228;2023-12-29T00:05:10;10.70;55.90
50969;DHT22;36982;51.474;7.228;2023-12-29T00:07:35;10.60;55.40
50969;DHT22;36982;51.474;7.228;2023-12-29T00:10:01;10.60;53.80
50969;DHT22;36982;51.474;7.228;2023-12-29T00:12:26;10.70;55.40
50969;DHT22;36982;51.474;7.228;2023-12-29T00:14:52;10.70;53.00
50969;DHT22;36982;51.474;7.228;2023-12-29T00:17:18;10.60;55.00
50969;DHT22;36982;51.474;7.228;2023-12-29T00:19:43;10.60;53.90
50969;DHT22;36982;51.474;7.228;2023-12-29T00:22:09;10.70;52.40
50969;DHT22;36982;51.474;7.228;2023-12-29T00:24:34;10.70;51.00
50969;DHT22;36982;51.474;7.228;2023-12-29T00:27:01;10.70;52.90
50969;DHT22;36982;51.474;7.228;2023-12-29T00:29:27;10.60;53.40
50969;DHT22;36982;51.474;7.228;2023-12-29T00:31:57;10.70;52.10
50969;DHT22;36982;51.474;7.228;2023-12-29T00:34:23;10.90;52.40
50969;DHT22;36982;51.474;7.228;2023-12-29T00:36:48;10.70;52.40
50969;DHT22;36982;51.474;7.228;2023-12-29T00:39:14;10.70;52.90
50969;DHT22;36982;51.474;7.228;2023-12-29T00:41:40;10.70;54.40
50969;DHT22;36982;51.474;7.228;2023-12-29T00:44:07;10.70;55.80
50969;DHT22;36982;51.474;7.228;2023-12-29T00:46:33;10.70;51.70
50969;DHT22;36982;51.474;7.228;2023-12-29T00:48:59;10.70;53.00
50969;DHT22;36982;51.474;7.228;2023-12-29T00:51:24;10.80;50.20
50969;DHT22;36982;51.474;7.228;2023-12-29T00:53:50;10.70;52.60
50969;DHT22;36982;51.474;7.228;2023-12-29T00:56:16;10.70;51.60
50969;DHT22;36982;51.474;7.228;2023-12-29T00:58:41;10.70;50.80
50969;DHT22;36982;51.474;7.228;2023-12-29T01:01:07;10.70;49.90
50969;DHT22;36982;51.474;7.228;2023-12-29T01:03:34;10.70;52.10
50969;DHT22;36982;51.474;7.228;2023-12-29T01:06:00;10.70;51.50
50969;DHT22;36982;51.474;7.228;2023-12-29T01:08:25;10.90;53.70
50969;DHT22;36982;51.474;7.228;2023-12-29T01:10:51;10.70;50.90
50969;DHT22;36982;51.474;7.228;2023-12-29T01:13:16;10.80;50.90
50969;DHT22;36982;51.474;7.228;2023-12-29T01:15:42;10.70;51.80
50969;DHT22;36982;51.474;7.228;2023-12-29T01:18:11;10.70;53.00
50969;DHT22;36982;51.474;7.228;2023-12-29T01:20:37;10.70;53.00
50969;DHT22;36982;51.474;7.228;2023-12-29T01:23:05;10.70;54.40
50969;DHT22;36982;51.474;7.228;2023-12-29T01:25:30;10.70;54.20
50969;DHT22;36982;51.474;7.228;2023-12-29T01:27:56;10.70;51.60
50969;DHT22;36982;51.474;7.228;2023-12-29T01:30:21;10.70;53.70
50969;DHT22;36982;51.474;7.228;2023-12-29T01:32:47;10.60;55.60
50969;DHT22;36982;51.474;7.228;2023-12-29T01:35:12;10.70;54.10
50969;DHT22;36982;51.474;7.228;2023-12-29T01:37:38;10.70;55.40
50969;DHT22;36982;51.474;7.228;2023-12-29T01:40:04;10.60;54.10
50969;DHT22;36982;51.474;7.228;2023-12-29T01:42:30;10.70;53.40
50969;DHT22;36982;51.474;7.228;2023-12-29T01:44:56;10.70;54.90
50969;DHT22;36982;51.474;7.228;2023-12-29T01:47:22;10.70;55.40
50969;DHT22;36982;51.474;7.228;2023-12-29T01:49:49;10.60;55.40
50969;DHT22;36982;51.474;7.228;2023-12-29T01:52:16;10.60;56.40
50969;DHT22;36982;51.474;7.228;2023-12-29T01:54:43;10.70;57.20
50969;DHT22;36982;51.474;7.228;2023-12-29T01:57:10;10.70;56.00
50969;DHT22;36982;51.474;7.228;2023-12-29T01:59:36;10.60;64.70
50969;DHT22;36982;51.474;7.228;2023-12-29T02:02:03;10.50;70.20
50969;DHT22;36982;51.474;7.228;2023-12-29T02:04:30;10.60;73.70
50969;DHT22;36982;51.474;7.228;2023-12-29T02:06:56;10.50;77.80
50969;DHT22;36982;51.474;7.228;2023-12-29T02:09:22;10.50;79.20
50969;DHT22;36982;51.474;7.228;2023-12-29T02:11:48;10.40;79.10
50969;DHT22;36982;51.474;7.228;2023-12-29T02:14:15;10.40;81.50
50969;DHT22;36982;51.474;7.228;2023-12-29T02:17:10;10.30;83.40
50969;DHT22;36982;51.474;7.228;2023-12-29T02:19:41;10.30;87.60
50969;DHT22;36982;51.474;7.228;2023-12-29T02:22:09;10.20;90.60
50969;DHT22;36982;51.474;7.228;2023-12-29T02:24:36;10.20;93.40
50969;DHT22;36982;51.474;7.228;2023-12-29T02:27:23;10.10;95.60
50969;DHT22;36982;51.474;7.228;2023-12-29T02:32:46;9.80;99.70
50969;DHT22;36982;51.474;7.228;2023-12-29T02:35:16;9.70;99.90
50969;DHT22;36982;51.474;7.228;2023-12-29T02:37:42;9.60;99.90
50969;DHT22;36982;51.474;7.228;2023-12-29T02:40:09;9.50;99.90
50969;DHT22;36982;51.474;7.228;2023-12-29T02:42:34;9.50;99.90
50969;DHT22;36982;51.474;7.228;2023-12-29T02:45:00;9.40;99.90
50969;DHT22;36982;51.474;7.228;2023-12-29T02:47:26;9.40;99.90
50969;DHT22;36982;51.474;7.228;2023-12-29T02:49:52;9.30;99.90
50969;DHT22;36982;51.474;7.228;2023-12-29T02:52:17;9.30;99.90
50969;DHT22;36982;51.474;7.228;2023-12-29T02:54:43;9.40;99.90
50969;DHT22;36982;51.474;7.228;2023-12-29T02:57:08;9.20;99.90
50969;DHT22;36982;51.474;7.228;2023-12-29T02:59:34;9.20;99.90
50969;DHT22;36982;51.474;7.228;2023-12-29T03:01:59;9.10;99.90
50969;DHT22;36982;51.474;7.228;2023-12-29T03:04:25;9.10;99.90
50969;DHT22;36982;51.474;7.228;2023-12-29T03:06:51;9.10;99.90
50969;DHT22;36982;51.474;7.228;2023-12-29T03:09:16;9.10;99.90
50969;DHT22;36982;51.474;7.228;2023-12-29T03:11:42;9.20;99.90
50969;DHT22;36982;51.474;7.228;2023-12-29T03:14:07;9.10;99.90
50969;DHT22;36982;51.474;7.228;2023-12-29T03:16:33;9.10;99.90
50969;DHT22;36982;51.474;7.228;2023-12-29T03:18:58;9.10;99.90
50969;DHT22;36982;51.474;7.228;2023-12-29T03:21:24;9.10;99.90
50969;DHT22;36982;51.474;7.228;2023-12-29T03:23:50;9.10;99.90
50969;DHT22;36982;51.474;7.228;2023-12-29T03:26:15;9.20;99.90
50969;DHT22;36982;51.474;7.228;2023-12-29T03:28:41;9.20;99.90
50969;DHT22;36982;51.474;7.228;2023-12-29T03:31:07;9.20;99.90
50969;DHT22;36982;51.474;7.228;2023-12-29T03:33:32;9.20;99.90
50969;DHT22;36982;51.474;7.228;2023-12-29T03:36:01;9.10;99.90
50969;DHT22;36982;51.474;7.228;2023-12-29T03:38:26;9.20;99.90
50969;DHT22;36982;51.474;7.228;2023-12-29T03:40:52;9.20;99.90
50969;DHT22;36982;51.474;7.228;2023-12-29T03:43:18;9.40;99.90
50969;DHT22;36982;51.474;7.228;2023-12-29T03:45:43;9.40;99.90
50969;DHT22;36982;51.474;7.228;2023-12-29T03:48:09;9.40;99.90
50969;DHT22;36982;51.474;7.228;2023-12-29T03:50:35;9.40;99.90
50969;DHT22;36982;51.474;7.228;2023-12-29T03:53:00;9.50;99.90
50969;DHT22;36982;51.474;7.228;2023-12-29T03:55:26;9.50;99.90
50969;DHT22;36982;51.474;7.228;2023-12-29T03:57:52;9.50;99.90
50969;DHT22;36982;51.474;7.228;2023-12-29T04:00:17;9.60;99.90
50969;DHT22;36982;51.474;7.228;2023-12-29T04:02:43;9.60;99.90
50969;DHT22;36982;51.474;7.228;2023-12-29T04:05:09;9.50;99.90
50969;DHT22;36982;51.474;7.228;2023-12-29T04:07:36;9.60;99.90
50969;DHT22;36982;51.474;7.228;2023-12-29T04:10:01;9.60;99.90
50969;DHT22;36982;51.474;7.228;2023-12-29T04:12:27;9.60;99.90
50969;DHT22;36982;51.474;7.228;2023-12-29T04:14:52;9.60;99.90
50969;DHT22;36982;51.474;7.228;2023-12-29T04:17:18;9.70;99.90
50969;DHT22;36982;51.474;7.228;2023-12-29T04:19:43;9.70;99.90
50969;DHT22;36982;51.474;7.228;2023-12-29T04:22:09;9.60;99.90
50969;DHT22;36982;51.474;7.228;2023-12-29T04:24:37;9.60;99.90
50969;DHT22;36982;51.474;7.228;2023-12-29T04:27:03;9.70;99.90
50969;DHT22;36982;51.474;7.228;2023-12-29T04:29:29;9.70;99.90
50969;DHT22;36982;51.474;7.228;2023-12-29T04:31:54;9.70;99.90
50969;DHT22;36982;51.474;7.228;2023-12-29T04:34:20;9.80;99.90
50969;DHT22;36982;51.474;7.228;2023-12-29T04:36:46;9.80;99.90
50969;DHT22;36982;51.474;7.228;2023-12-29T04:39:11;9.70;99.90
50969;DHT22;36982;51.474;7.228;2023-12-29T04:41:37;9.80;99.90
50969;DHT22;36982;51.474;7.228;2023-12-29T04:44:02;9.80;99.90
50969;DHT22;36982;51.474;7.228;2023-12-29T04:46:28;9.80;99.90
50969;DHT22;36982;51.474;7.228;2023-12-29T04:48:53;9.80;99.90
50969;DHT22;36982;51.474;7.228;2023-12-29T04:51:19;9.80;99.90
50969;DHT22;36982;51.474;7.228;2023-12-29T04:53:46;9.90;99.90
50969;DHT22;36982;51.474;7.228;2023-12-29T04:56:11;9.90;99.90
50969;DHT22;36982;51.474;7.228;2023-12-29T04:58:37;9.90;99.90
50969;DHT22;36982;51.474;7.228;2023-12-29T05:01:03;9.90;99.90
50969;DHT22;36982;51.474;7.228;2023-12-29T05:03:28;9.90;99.90
50969;DHT22;36982;51.474;7.228;2023-12-29T05:05:54;10.00;99.90
50969;DHT22;36982;51.474;7.228;2023-12-29T05:08:20;9.90;99.90
50969;DHT22;36982;51.474;7.228;2023-12-29T05:10:45;9.90;99.90
50969;DHT22;36982;51.474;7.228;2023-12-29T05:13:11;9.90;99.90
50969;DHT22;36982;51.474;7.228;2023-12-29T05:15:36;9.90;99.90
50969;DHT22;36982;51.474;7.228;2023-12-29T05:18:02;9.90;99.90
50969;DHT22;36982;51.474;7.228;2023-12-29T05:20:28;9.90;99.90
50969;DHT22;36982;51.474;7.228;2023-12-29T05:22:53;9.90;99.90
50969;DHT22;36982;51.474;7.228;2023-12-29T05:25:19;9.90;99.90
50969;DHT22;36982;51.474;7.228;2023-12-29T05:27:47;9.90;99.70
50969;DHT22;36982;51.474;7.228;2023-12-29T05:30:13;9.90;99.70
50969;DHT22;36982;51.474;7.228;2023-12-29T05:32:39;9.90;99.30
50969;DHT22;36982;51.474;7.228;2023-12-29T05:35:05;9.90;99.60
50969;DHT22;36982;51.474;7.228;2023-12-29T05:37:30;9.90;99.60
50969;DHT22;36982;51.474;7.228;2023-12-29T05:39:56;9.90;99.50
50969;DHT22;36982;51.474;7.228;2023-12-29T05:42:21;9.90;98.50
50969;DHT22;36982;51.474;7.228;2023-12-29T05:44:47;10.00;98.10
50969;DHT22;36982;51.474;7.228;2023-12-29T05:47:13;9.90;98.50
50969;DHT22;36982;51.474;7.228;2023-12-29T05:49:38;10.00;98.80
50969;DHT22;36982;51.474;7.228;2023-12-29T05:52:08;9.90;98.00
50969;DHT22;36982;51.474;7.228;2023-12-29T05:54:34;10.00;97.40
50969;DHT22;36982;51.474;7.228;2023-12-29T05:57:00;10.00;97.30
50969;DHT22;36982;51.474;7.228;2023-12-29T05:59:26;10.20;97.10
50969;DHT22;36982;51.474;7.228;2023-12-29T06:01:51;10.10;96.80
50969;DHT22;36982;51.474;7.228;2023-12-29T06:04:17;10.10;96.70
50969;DHT22;36982;51.474;7.228;2023-12-29T06:06:43;10.10;97.00
50969;DHT22;36982;51.474;7.228;2023-12-29T06:09:11;10.10;97.40
50969;DHT22;36982;51.474;7.228;2023-12-29T06:11:37;10.00;97.80
50969;DHT22;36982;51.474;7.228;2023-12-29T06:14:03;10.00;85.80
50969;DHT22;36982;51.474;7.228;2023-12-29T06:16:29;10.10;81.00
50969;DHT22;36982;51.474;7.228;2023-12-29T06:18:55;10.10;77.50
50969;DHT22;36982;51.474;7.228;2023-12-29T06:21:21;10.10;77.40
50969;DHT22;36982;51.474;7.228;2023-12-29T06:23:47;10.10;74.50
50969;DHT22;36982;51.474;7.228;2023-12-29T06:26:17;10.10;76.80
50969;DHT22;36982;51.474;7.228;2023-12-29T06:28:43;10.30;74.80
50969;DHT22;36982;51.474;7.228;2023-12-29T06:31:09;10.20;73.50
50969;DHT22;36982;51.474;7.228;2023-12-29T06:33:35;10.20;75.10
50969;DHT22;36982;51.474;7.228;2023-12-29T06:36:01;10.20;73.60
50969;DHT22;36982;51.474;7.228;2023-12-29T06:38:26;10.20;72.00
50969;DHT22;36982;51.474;7.228;2023-12-29T06:40:52;10.20;72.80
50969;DHT22;36982;51.474;7.228;2023-12-29T06:43:17;10.20;71.90
50969;DHT22;36982;51.474;7.228;2023-12-29T06:45:43;10.10;74.30
50969;DHT22;36982;51.474;7.228;2023-12-29T06:48:09;10.20;72.50
50969;DHT22;36982;51.474;7.228;2023-12-29T06:50:35;10.20;72.90
50969;DHT22;36982;51.474;7.228;2023-12-29T06:53:02;10.10;70.80
50969;DHT22;36982;51.474;7.228;2023-12-29T06:55:28;10.20;69.80
50969;DHT22;36982;51.474;7.228;2023-12-29T06:57:54;10.20;70.50
50969;DHT22;36982;51.474;7.228;2023-12-29T07:02:47;10.20;71.90
50969;DHT22;36982;51.474;7.228;2023-12-29T07:05:13;10.20;68.30
50969;DHT22;36982;51.474;7.228;2023-12-29T07:07:38;10.10;70.30
50969;DHT22;36982;51.474;7.228;2023-12-29T07:10:04;10.20;69.20
50969;DHT22;36982;51.474;7.228;2023-12-29T07:12:31;10.30;68.30
50969;DHT22;36982;51.474;7.228;2023-12-29T07:14:57;10.20;69.00
50969;DHT22;36982;51.474;7.228;2023-12-29T07:17:22;10.30;68.20
50969;DHT22;36982;51.474;7.228;2023-12-29T07:19:48;10.20;70.80
50969;DHT22;36982;51.474;7.228;2023-12-29T07:22:15;10.20;72.80
50969;DHT22;36982;51.474;7.228;2023-12-29T07:24:41;10.20;75.70
50969;DHT22;36982;51.474;7.228;2023-12-29T07:27:06;10.20;85.80
50969;DHT22;36982;51.474;7.228;2023-12-29T07:29:33;10.10;90.70
50969;DHT22;36982;51.474;7.228;2023-12-29T07:31:59;10.00;92.80
50969;DHT22;36982;51.474;7.228;2023-12-29T07:34:25;9.90;95.20
50969;DHT22;36982;51.474;7.228;2023-12-29T07:36:50;9.70;97.20
50969;DHT22;36982;51.474;7.228;2023-12-29T07:39:17;9.80;98.80
50969;DHT22;36982;51.474;7.228;2023-12-29T07:41:42;9.60;99.90
50969;DHT22;36982;51.474;7.228;2023-12-29T07:44:10;9.60;99.90
50969;DHT22;36982;51.474;7.228;2023-12-29T07:46:38;9.40;99.90
50969;DHT22;36982;51.474;7.228;2023-12-29T07:49:04;9.40;99.90
50969;DHT22;36982;51.474;7.228;2023-12-29T07:51:30;9.40;99.90
50969;DHT22;36982;51.474;7.228;2023-12-29T07:53:55;9.30;99.90
50969;DHT22;36982;51.474;7.228;2023-12-29T07:56:21;9.30;99.90
50969;DHT22;36982;51.474;7.228;2023-12-29T07:58:46;9.20;99.90
50969;DHT22;36982;51.474;7.228;2023-12-29T08:01:12;9.10;99.90
50969;DHT22;36982;51.474;7.228;2023-12-29T08:03:38;9.10;99.90
50969;DHT22;36982;51.474;7.228;2023-12-29T08:06:03;9.10;99.90
50969;DHT22;36982;51.474;7.228;2023-12-29T08:08:29;9.10;99.90
50969;DHT22;36982;51.474;7.228;2023-12-29T08:10:54;9.10;99.90
50969;DHT22;36982;51.474;7.228;2023-12-29T08:13:20;9.10;99.90
50969;DHT22;36982;51.474;7.228;2023-12-29T08:15:45;9.10;99.90
50969;DHT22;36982;51.474;7.228;2023-12-29T08:18:11;9.10;99.90
50969;DHT22;36982;51.474;7.228;2023-12-29T08:20:36;9.10;99.90
50969;DHT22;36982;51.474;7.228;2023-12-29T08:23:02;9.10;99.90
50969;DHT22;36982;51.474;7.228;2023-12-29T08:25:28;9.20;99.90
50969;DHT22;36982;51.474;7.228;2023-12-29T08:27:55;9.20;99.90
50969;DHT22;36982;51.474;7.228;2023-12-29T08:30:21;9.20;99.90
50969;DHT22;36982;51.474;7.228;2023-12-29T08:32:47;9.20;99.90
50969;DHT22;36982;51.474;7.228;2023-12-29T08:35:12;9.20;99.90
50969;DHT22;36982;51.474;7.228;2023-12-29T08:37:38;9.30;99.90
50969;DHT22;36982;51.474;7.228;2023-12-29T08:40:04;9.30;99.90
50969;DHT22;36982;51.474;7.228;2023-12-29T08:42:30;9.30;99.90
50969;DHT22;36982;51.474;7.228;2023-12-29T08:44:58;9.30;99.90
50969;DHT22;36982;51.474;7.228;2023-12-29T08:47:23;9.30;99.90
50969;DHT22;36982;51.474;7.228;2023-12-29T08:49:49;9.30;99.90
50969;DHT22;36982;51.474;7.228;2023-12-29T08:52:14;9.30;99.90
50969;DHT22;36982;51.474;7.228;2023-12-29T08:54:40;9.30;99.90
50969;DHT22;36982;51.474;7.228;2023-12-29T08:57:06;9.30;99.90
50969;DHT22;36982;51.474;7.228;2023-12-29T08:59:33;9.30;99.90
50969;DHT22;36982;51.474;7.228;2023-12-29T09:01:58;9.40;99.90
50969;DHT22;36982;51.474;7.228;2023-12-29T09:04:24;9.40;99.90
50969;DHT22;36982;51.474;7.228;2023-12-29T09:06:49;9.40;99.90
50969;DHT22;36982;51.474;7.228;2023-12-29T09:09:15;9.40;99.90
50969;DHT22;36982;51.474;7.228;2023-12-29T09:11:41;9.40;99.90
50969;DHT22;36982;51.474;7.228;2023-12-29T09:14:07;9.60;99.90
50969;DHT22;36982;51.474;7.228;2023-12-29T09:16:35;9.50;99.90
50969;DHT22;36982;51.474;7.228;2023-12-29T09:19:01;9.60;99.90
50969;DHT22;36982;51.474;7.228;2023-12-29T09:21:26;9.60;99.90
50969;DHT22;36982;51.474;7.228;2023-12-29T09:23:52;9.60;99.90
50969;DHT22;36982;51.474;7.228;2023-12-29T09:26:18;9.60;99.90
50969;DHT22;36982;51.474;7.228;2023-12-29T09:28:44;9.60;99.90
50969;DHT22;36982;51.474;7.228;2023-12-29T09:31:10;9.70;99.90
50969;DHT22;36982;51.474;7.228;2023-12-29T09:33:36;9.60;99.90
50969;DHT22;36982;51.474;7.228;2023-12-29T09:36:02;9.60;99.90
50969;DHT22;36982;51.474;7.228;2023-12-29T09:38:28;9.70;99.90
50969;DHT22;36982;51.474;7.228;2023-12-29T09:40:55;9.70;99.90
50969;DHT22;36982;51.474;7.228;2023-12-29T09:43:27;9.60;99.90
50969;DHT22;36982;51.474;7.228;2023-12-29T09:45:54;9.70;99.90
50969;DHT22;36982;51.474;7.228;2023-12-29T09:48:21;9.80;99.90
50969;DHT22;36982;51.474;7.228;2023-12-29T09:50:51;9.80;99.90
50969;DHT22;36982;51.474;7.228;2023-12-29T09:53:22;9.80;99.90
50969;DHT22;36982;51.474;7.228;2023-12-29T09:55:49;9.80;99.90
50969;DHT22;36982;51.474;7.228;2023-12-29T09:58:17;9.80;99.90
50969;DHT22;36982;51.474;7.228;2023-12-29T10:00:46;9.80;99.90
50969;DHT22;36982;51.474;7.228;2023-12-29T10:03:12;9.80;99.90
50969;DHT22;36982;51.474;7.228;2023-12-29T10:05:37;9.80;99.90
50969;DHT22;36982;51.474;7.228;2023-12-29T10:08:05;9.70;99.90
50969;DHT22;36982;51.474;7.228;2023-12-29T10:10:33;9.70;99.90
50969;DHT22;36982;51.474;7.228;2023-12-29T10:13:00;9.70;99.90
50969;DHT22;36982;51.474;7.228;2023-12-29T10:15:50;9.70;99.90
50969;DHT22;36982;51.474;7.228;2023-12-29T10:18:32;9.60;99.90
50969;DHT22;36982;51.474;7.228;2023-12-29T10:23:53;9.60;99.90
50969;DHT22;36982;51.474;7.228;2023-12-29T10:26:20;9.50;99.90
50969;DHT22;36982;51.474;7.228;2023-12-29T10:28:47;9.50;99.90
50969;DHT22;36982;51.474;7.228;2023-12-29T10:31:15;9.50;99.90
50969;DHT22;36982;51.474;7.228;2023-12-29T10:33:41;9.60;99.90
50969;DHT22;36982;51.474;7.228;2023-12-29T10:36:07;9.50;99.90
50969;DHT22;36982;51.474;7.228;2023-12-29T10:38:34;9.50;99.90
50969;DHT22;36982;51.474;7.228;2023-12-29T10:41:19;9.50;99.90
50969;DHT22;36982;51.474;7.228;2023-12-29T10:43:46;9.50;99.90
50969;DHT22;36982;51.474;7.228;2023-12-29T10:46:20;9.40;99.90
50969;DHT22;36982;51.474;7.228;2023-12-29T10:48:46;9.50;99.90
50969;DHT22;36982;51.474;7.228;2023-12-29T10:51:11;9.50;99.90
50969;DHT22;36982;51.474;7.228;2023-12-29T10:53:37;9.60;99.90
50969;DHT22;36982;51.474;7.228;2023-12-29T10:56:03;9.60;99.90
50969;DHT22;36982;51.474;7.228;2023-12-29T10:58:30;9.60;99.90
50969;DHT22;36982;51.474;7.228;2023-12-29T11:00:57;9.70;99.90
50969;DHT22;36982;51.474;7.228;2023-12-29T11:03:22;9.80;99.90
50969;DHT22;36982;51.474;7.228;2023-12-29T11:05:49;9.80;99.90
50969;DHT22;36982;51.474;7.228;2023-12-29T11:08:20;9.90;99.90
50969;DHT22;36982;51.474;7.228;2023-12-29T11:10:50;10.00;99.90
50969;DHT22;36982;51.474;7.228;2023-12-29T11:13:16;10.00;99.90
50969;DHT22;36982;51.474;7.228;2023-12-29T11:15:43;10.10;99.90
50969;DHT22;36982;51.474;7.228;2023-12-29T11:18:17;10.20;99.90
50969;DHT22;36982;51.474;7.228;2023-12-29T11:20:44;10.10;99.90
50969;DHT22;36982;51.474;7.228;2023-12-29T11:23:11;10.20;99.90
50969;DHT22;36982;51.474;7.228;2023-12-29T11:25:39;10.20;99.90
50969;DHT22;36982;51.474;7.228;2023-12-29T11:28:08;10.40;99.90
50969;DHT22;36982;51.474;7.228;2023-12-29T11:30:34;10.30;99.90
50969;DHT22;36982;51.474;7.228;2023-12-29T11:35:47;10.40;99.90
50969;DHT22;36982;51.474;7.228;2023-12-29T11:43:57;10.50;99.90
50969;DHT22;36982;51.474;7.228;2023-12-29T11:46:36;10.60;99.90
50969;DHT22;36982;51.474;7.228;2023-12-29T11:49:02;10.60;99.90
50969;DHT22;36982;51.474;7.228;2023-12-29T11:51:44;10.60;99.90
50969;DHT22;36982;51.474;7.228;2023-12-29T11:54:09;10.50;99.90
50969;DHT22;36982;51.474;7.228;2023-12-29T11:56:40;10.50;99.90
50969;DHT22;36982;51.474;7.228;2023-12-29T11:59:20;10.60;99.90
50969;DHT22;36982;51.474;7.228;2023-12-29T12:01:57;10.60;99.90
50969;DHT22;36982;51.474;7.228;2023-12-29T12:04:42;10.60;99.90
50969;DHT22;36982;51.474;7.228;2023-12-29T12:09:47;10.60;99.90
50969;DHT22;36982;51.474;7.228;2023-12-29T12:12:38;10.50;99.90
50969;DHT22;36982;51.474;7.228;2023-12-29T12:15:04;10.50;99.90
50969;DHT22;36982;51.474;7.228;2023-12-29T12:17:50;10.60;99.90
50969;DHT22;36982;51.474;7.228;2023-12-29T12:20:15;10.50;99.90
50969;DHT22;36982;51.474;7.228;2023-12-29T12:22:43;10.50;99.90
50969;DHT22;36982;51.474;7.228;2023-12-29T12:25:11;10.60;99.90
50969;DHT22;36982;51.474;7.228;2023-12-29T12:27:38;10.60;99.90
50969;DHT22;36982;51.474;7.228;2023-12-29T12:30:04;10.60;99.90
50969;DHT22;36982;51.474;7.228;2023-12-29T12:32:30;10.60;99.90
50969;DHT22;36982;51.474;7.228;2023-12-29T12:34:56;10.60;99.90
50969;DHT22;36982;51.474;7.228;2023-12-29T12:37:22;10.60;99.90
50969;DHT22;36982;51.474;7.228;2023-12-29T12:39:48;10.60;99.90
50969;DHT22;36982;51.474;7.228;2023-12-29T12:42:15;10.50;99.90
50969;DHT22;36982;51.474;7.228;2023-12-29T12:44:46;10.50;99.90
50969;DHT22;36982;51.474;7.228;2023-12-29T12:47:17;10.30;99.90
50969;DHT22;36982;51.474;7.228;2023-12-29T12:49:43;10.30;99.90
50969;DHT22;36982;51.474;7.228;2023-12-29T12:52:09;10.20;99.90
50969;DHT22;36982;51.474;7.228;2023-12-29T12:54:35;10.10;99.90
50969;DHT22;36982;51.474;7.228;2023-12-29T12:57:01;10.10;99.90
50969;DHT22;36982;51.474;7.228;2023-12-29T12:59:27;10.00;99.90
50969;DHT22;36982;51.474;7.228;2023-12-29T13:01:53;9.90;99.90
50969;DHT22;36982;51.474;7.228;2023-12-29T13:04:19;9.90;99.90
50969;DHT22;36982;51.474;7.228;2023-12-29T13:06:45;9.80;99.90
50969;DHT22;36982;51.474;7.228;2023-12-29T13:09:11;9.90;99.90
50969;DHT22;36982;51.474;7.228;2023-12-29T13:11:38;9.90;99.90
50969;DHT22;36982;51.474;7.228;2023-12-29T13:14:06;9.80;99.90
50969;DHT22;36982;51.474;7.228;2023-12-29T13:16:34;9.80;99.90
50969;DHT22;36982;51.474;7.228;2023-12-29T13:19:23;9.90;99.90
50969;DHT22;36982;51.474;7.228;2023-12-29T13:21:54;9.80;99.90
50969;DHT22;36982;51.474;7.228;2023-12-29T13:24:24;9.90;99.90
50969;DHT22;36982;51.474;7.228;2023-12-29T13:27:02;9.80;99.90
50969;DHT22;36982;51.474;7.228;2023-12-29T13:29:28;9.80;99.90
50969;DHT22;36982;51.474;7.228;2023-12-29T13:31:58;9.70;99.90
50969;DHT22;36982;51.474;7.228;2023-12-29T13:34:49;9.70;99.90
50969;DHT22;36982;51.474;7.228;2023-12-29T13:37:51;9.80;99.90
50969;DHT22;36982;51.474;7.228;2023-12-29T13:42:56;9.80;99.90
50969;DHT22;36982;51.474;7.228;2023-12-29T13:45:22;9.80;99.90
50969;DHT22;36982;51.474;7.228;2023-12-29T13:47:49;9.80;99.90
50969;DHT22;36982;51.474;7.228;2023-12-29T13:50:14;9.80;99.90
50969;DHT22;36982;51.474;7.228;2023-12-29T13:52:40;9.90;99.90
50969;DHT22;36982;51.474;7.228;2023-12-29T13:55:06;9.80;99.90
50969;DHT22;36982;51.474;7.228;2023-12-29T13:57:33;9.90;99.90
50969;DHT22;36982;51.474;7.228;2023-12-29T14:00:22;9.80;99.90
50969;DHT22;36982;51.474;7.228;2023-12-29T14:02:58;9.80;99.90
50969;DHT22;36982;51.474;7.228;2023-12-29T14:08:08;9.90;99.90
50969;DHT22;36982;51.474;7.228;2023-12-29T14:10:36;10.00;99.90
50969;DHT22;36982;51.474;7.228;2023-12-29T14:13:15;10.00;99.90
50969;DHT22;36982;51.474;7.228;2023-12-29T14:15:42;10.00;99.90
50969;DHT22;36982;51.474;7.228;2023-12-29T14:18:30;10.00;99.90
50969;DHT22;36982;51.474;7.228;2023-12-29T14:20:58;10.10;99.90
50969;DHT22;36982;51.474;7.228;2023-12-29T14:23:23;10.10;99.90
50969;DHT22;36982;51.474;7.228;2023-12-29T14:25:49;10.10;99.90
50969;DHT22;36982;51.474;7.228;2023-12-29T14:28:21;10.10;99.90
50969;DHT22;36982;51.474;7.228;2023-12-29T14:30:47;10.10;99.90
50969;DHT22;36982;51.474;7.228;2023-12-29T14:33:13;10.10;99.90
50969;DHT22;36982;51.474;7.228;2023-12-29T14:35:39;10.10;99.90
50969;DHT22;36982;51.474;7.228;2023-12-29T14:38:05;10.20;99.90
50969;DHT22;36982;51.474;7.228;2023-12-29T14:40:30;10.20;99.90
50969;DHT22;36982;51.474;7.228;2023-12-29T14:43:00;10.00;99.90
50969;DHT22;36982;51.474;7.228;2023-12-29T14:45:25;10.10;99.90
50969;DHT22;36982;51.474;7.228;2023-12-29T14:47:51;10.20;99.90
50969;DHT22;36982;51.474;7.228;2023-12-29T14:50:16;10.20;99.90
50969;DHT22;36982;51.474;7.228;2023-12-29T14:52:42;10.10;99.90
50969;DHT22;36982;51.474;7.228;2023-12-29T14:55:08;10.10;99.90
50969;DHT22;36982;51.474;7.228;2023-12-29T14:57:33;10.00;99.90
50969;DHT22;36982;51.474;7.228;2023-12-29T14:59:59;10.10;99.90
50969;DHT22;36982;51.474;7.228;2023-12-29T15:02:25;10.00;99.90
50969;DHT22;36982;51.474;7.228;2023-12-29T15:04:50;10.10;99.90
50969;DHT22;36982;51.474;7.228;2023-12-29T15:07:16;10.10;99.90
50969;DHT22;36982;51.474;7.228;2023-12-29T15:09:43;10.10;99.90
50969;DHT22;36982;51.474;7.228;2023-12-29T15:12:09;10.10;99.90
50969;DHT22;36982;51.474;7.228;2023-12-29T15:14:34;10.00;99.90
50969;DHT22;36982;51.474;7.228;2023-12-29T15:17:00;10.00;99.90
50969;DHT22;36982;51.474;7.228;2023-12-29T15:19:25;10.00;99.90
50969;DHT22;36982;51.474;7.228;2023-12-29T15:21:51;10.00;99.90
50969;DHT22;36982;51.474;7.228;2023-12-29T15:24:22;9.90;99.90
50969;DHT22;36982;51.474;7.228;2023-12-29T15:26:48;9.90;99.90
50969;DHT22;36982;51.474;7.228;2023-12-29T15:29:13;9.90;99.90
50969;DHT22;36982;51.474;7.228;2023-12-29T15:31:42;9.80;99.90
50969;DHT22;36982;51.474;7.228;2023-12-29T15:34:09;9.80;99.90
50969;DHT22;36982;51.474;7.228;2023-12-29T15:36:35;9.80;99.90
50969;DHT22;36982;51.474;7.228;2023-12-29T15:39:00;9.80;99.90
50969;DHT22;36982;51.474;7.228;2023-12-29T15:41:26;9.50;99.90
50969;DHT22;36982;51.474;7.228;2023-12-29T15:43:51;9.50;99.90
50969;DHT22;36982;51.474;7.228;2023-12-29T15:46:18;9.50;99.90
50969;DHT22;36982;51.474;7.228;2023-12-29T15:48:46;9.60;99.90
50969;DHT22;36982;51.474;7.228;2023-12-29T15:51:12;9.60;99.90
50969;DHT22;36982;51.474;7.228;2023-12-29T15:53:38;9.50;99.90
50969;DHT22;36982;51.474;7.228;2023-12-29T15:56:07;9.50;99.90
50969;DHT22;36982;51.474;7.228;2023-12-29T15:58:37;9.60;99.90
50969;DHT22;36982;51.474;7.228;2023-12-29T16:01:04;9.50;99.90
50969;DHT22;36982;51.474;7.228;2023-12-29T16:03:31;9.50;99.90